Datum - Zeit
Temperatur 2mTemperatur 5cmTaupunktFeuchteSolar Wind aus Richtung WindböenLuftdruck (QFF)RegenRegenstärkeTrend
08.02.2023 - 00.00Uhr-3.0 °C-5 °C89.3 %1.3 km/hWest-NW3.2 km/h1035.7 hPa0.0 mm0.0 mm/hwechselhaft
08.02.2023 - 00.05Uhr-2.8 °C-4 °C89.0 %3.4 km/hWest-NW6.5 km/h1035.7 hPa0.0 mm0.0 mm/hwechselhaft
08.02.2023 - 00.10Uhr-2.7 °C-4 °C88.6 %0.7 km/hWesten3.2 km/h1035.6 hPa0.0 mm0.0 mm/hwechselhaft
08.02.2023 - 00.15Uhr-2.6 °C-4 °C88.0 %1.1 km/hWesten3.2 km/h1035.7 hPa0.0 mm0.0 mm/hwechselhaft
08.02.2023 - 00.20Uhr-2.5 °C-4 °C88.0 %1.5 km/hWesten3.2 km/h1035.7 hPa0.0 mm0.0 mm/hwechselhaft
08.02.2023 - 00.25Uhr-2.4 °C-4 °C88.0 %2.2 km/hWesten4.7 km/h1035.6 hPa0.0 mm0.0 mm/hwechselhaft
08.02.2023 - 00.30Uhr-2.4 °C-4 °C87.1 %1.9 km/hWesten3.2 km/h1035.6 hPa0.0 mm0.0 mm/hwechselhaft
08.02.2023 - 00.35Uhr-2.3 °C-4 °C87.0 %0.6 km/hWesten3.2 km/h1035.6 hPa0.0 mm0.0 mm/hwechselhaft
08.02.2023 - 00.40Uhr-2.3 °C-4 °C87.0 %0.3 km/hWesten1.4 km/h1035.6 hPa0.0 mm0.0 mm/hwechselhaft
08.02.2023 - 00.45Uhr-2.3 °C-4 °C87.0 %0.0 km/hWesten0.0 km/h1035.5 hPa0.0 mm0.0 mm/hwechselhaft
08.02.2023 - 00.50Uhr-2.3 °C-4 °C87.0 %0.0 km/hWesten0.0 km/h1035.5 hPa0.0 mm0.0 mm/hwechselhaft
08.02.2023 - 00.55Uhr-2.2 °C-4 °C87.0 %0.7 km/hWesten1.4 km/h1035.4 hPa0.0 mm0.0 mm/hwechselhaft
08.02.2023 - 01.00Uhr-2.2 °C-4 °C87.0 %0.3 km/hWesten1.4 km/h1035.3 hPa0.0 mm0.0 mm/hwechselhaft
08.02.2023 - 01.05Uhr-2.2 °C-4 °C87.0 %0.7 km/hWesten4.7 km/h1035.3 hPa0.0 mm0.0 mm/hwechselhaft
08.02.2023 - 01.10Uhr-2.1 °C-4 °C87.0 %1.9 km/hWesten4.7 km/h1035.2 hPa0.0 mm0.0 mm/hwechselhaft
08.02.2023 - 01.15Uhr-2.1 °C-4 °C86.7 %0.7 km/hWesten3.2 km/h1035.2 hPa0.0 mm0.0 mm/hwechselhaft
08.02.2023 - 01.20Uhr-2.1 °C-4 °C86.0 %0.9 km/hWesten6.5 km/h1035.2 hPa0.0 mm0.0 mm/hwechselhaft
08.02.2023 - 01.25Uhr-2.0 °C-4 °C85.6 %3.6 km/hNordwesten7.9 km/h1035.0 hPa0.0 mm0.0 mm/hwechselhaft
08.02.2023 - 01.30Uhr-1.9 °C-4 °C85.0 %4.5 km/hNord-NW9.7 km/h1034.9 hPa0.0 mm0.0 mm/hwechselhaft
08.02.2023 - 01.35Uhr-1.9 °C-4 °C84.8 %5.5 km/hNord-NW13.0 km/h1034.9 hPa0.0 mm0.0 mm/hwechselhaft
08.02.2023 - 01.40Uhr-1.9 °C-4 °C84.0 %4.9 km/hNorden9.7 km/h1034.9 hPa0.0 mm0.0 mm/hwechselhaft
08.02.2023 - 01.45Uhr-1.9 °C-4 °C84.0 %6.4 km/hNorden11.2 km/h1034.9 hPa0.0 mm0.0 mm/hwechselhaft
08.02.2023 - 01.50Uhr-1.9 °C-4 °C84.0 %5.3 km/hNord-NW13.0 km/h1034.8 hPa0.0 mm0.0 mm/hwechselhaft
08.02.2023 - 01.55Uhr-1.9 °C-4 °C83.2 %6.6 km/hNorden13.0 km/h1034.8 hPa0.0 mm0.0 mm/hwechselhaft
08.02.2023 - 02.00Uhr-1.9 °C-4 °C83.0 %7.8 km/hNorden16.2 km/h1034.7 hPa0.0 mm0.0 mm/hwechselhaft
08.02.2023 - 02.05Uhr-1.9 °C-4 °C83.0 %5.2 km/hNord-NW11.2 km/h1034.8 hPa0.0 mm0.0 mm/hwechselhaft
08.02.2023 - 02.10Uhr-2.0 °C-5 °C83.0 %6.8 km/hNord-NW13.0 km/h1034.7 hPa0.0 mm0.0 mm/hsonnig
08.02.2023 - 02.15Uhr-2.1 °C-4 °C83.9 %4.5 km/hNord-NW7.9 km/h1034.7 hPa0.0 mm0.0 mm/hsonnig
08.02.2023 - 02.20Uhr-2.1 °C-4 °C83.9 %4.4 km/hNorden13.0 km/h1034.6 hPa0.0 mm0.0 mm/hsonnig
08.02.2023 - 02.25Uhr-2.1 °C-5 °C83.0 %5.2 km/hNorden13.0 km/h1034.6 hPa0.0 mm0.0 mm/hsonnig
08.02.2023 - 02.30Uhr-2.1 °C-5 °C83.0 %5.6 km/hNorden7.9 km/h1034.5 hPa0.0 mm0.0 mm/hsonnig
08.02.2023 - 02.35Uhr-2.1 °C-5 °C83.3 %4.1 km/hNorden7.9 km/h1034.5 hPa0.0 mm0.0 mm/hsonnig
08.02.2023 - 02.40Uhr-2.1 °C-5 °C83.2 %5.4 km/hNorden13.0 km/h1034.5 hPa0.0 mm0.0 mm/hsonnig
08.02.2023 - 02.45Uhr-2.1 °C-4 °C83.6 %5.5 km/hNorden7.9 km/h1034.4 hPa0.0 mm0.0 mm/hsonnig
08.02.2023 - 02.50Uhr-2.1 °C-4 °C84.0 %4.9 km/hNord-NW9.7 km/h1034.3 hPa0.0 mm0.0 mm/hsonnig
08.02.2023 - 02.55Uhr-2.1 °C-4 °C84.0 %5.5 km/hNorden14.4 km/h1034.3 hPa0.0 mm0.0 mm/hsonnig
08.02.2023 - 03.00Uhr-2.1 °C-4 °C84.0 %7.2 km/hNorden13.0 km/h1034.3 hPa0.0 mm0.0 mm/hsonnig
08.02.2023 - 03.05Uhr-2.2 °C-4 °C84.0 %5.1 km/hNorden11.2 km/h1034.3 hPa0.0 mm0.0 mm/hsonnig
08.02.2023 - 03.10Uhr-2.2 °C-4 °C84.0 %5.1 km/hNorden13.0 km/h1034.2 hPa0.0 mm0.0 mm/hwechselhaft
08.02.2023 - 03.15Uhr-2.2 °C-4 °C84.0 %5.9 km/hNorden13.0 km/h1034.3 hPa0.0 mm0.0 mm/hwechselhaft
08.02.2023 - 03.20Uhr-2.2 °C-4 °C84.0 %9.4 km/hNorden16.2 km/h1034.2 hPa0.0 mm0.0 mm/hwechselhaft
08.02.2023 - 03.25Uhr-2.2 °C-4 °C84.0 %5.9 km/hNorden13.0 km/h1034.2 hPa0.0 mm0.0 mm/hwechselhaft
08.02.2023 - 03.30Uhr-2.2 °C-4 °C84.2 %4.3 km/hNorden7.9 km/h1034.1 hPa0.0 mm0.0 mm/hwechselhaft
08.02.2023 - 03.35Uhr-2.2 °C-5 °C84.1 %5.1 km/hNorden13.0 km/h1034.0 hPa0.0 mm0.0 mm/hwechselhaft
08.02.2023 - 03.40Uhr-2.3 °C-5 °C84.5 %5.9 km/hNorden13.0 km/h1034.0 hPa0.0 mm0.0 mm/hwechselhaft
08.02.2023 - 03.45Uhr-2.3 °C-5 °C84.2 %6.9 km/hNorden14.4 km/h1034.0 hPa0.0 mm0.0 mm/hwechselhaft
08.02.2023 - 03.50Uhr-2.3 °C-5 °C84.0 %8.0 km/hNorden16.2 km/h1034.0 hPa0.0 mm0.0 mm/hwechselhaft
08.02.2023 - 03.55Uhr-2.4 °C-5 °C84.6 %7.3 km/hNorden13.0 km/h1033.9 hPa0.0 mm0.0 mm/hwechselhaft
08.02.2023 - 04.00Uhr-2.4 °C-5 °C85.0 %7.8 km/hNord-NW16.2 km/h1033.9 hPa0.0 mm0.0 mm/hwechselhaft
08.02.2023 - 04.05Uhr-2.4 °C-5 °C85.0 %7.8 km/hNord-NW17.6 km/h1033.9 hPa0.0 mm0.0 mm/hwechselhaft
08.02.2023 - 04.10Uhr-2.4 °C-5 °C85.0 %10.5 km/hNord-NW16.2 km/h1033.9 hPa0.0 mm0.0 mm/hwechselhaft
08.02.2023 - 04.15Uhr-2.5 °C-5 °C85.0 %9.7 km/hNord-NW17.6 km/h1033.9 hPa0.0 mm0.0 mm/hwechselhaft
08.02.2023 - 04.20Uhr-2.6 °C-5 °C85.0 %7.8 km/hNord-NW16.2 km/h1034.0 hPa0.0 mm0.0 mm/hwechselhaft
08.02.2023 - 04.25Uhr-2.6 °C-5 °C85.0 %7.3 km/hNord-NW16.2 km/h1033.9 hPa0.0 mm0.0 mm/hwechselhaft
08.02.2023 - 04.30Uhr-2.6 °C-5 °C85.0 %7.1 km/hNord-NW14.4 km/h1034.0 hPa0.0 mm0.0 mm/hwechselhaft
08.02.2023 - 04.35Uhr-2.6 °C-5 °C85.0 %8.7 km/hNorden17.6 km/h1034.0 hPa0.0 mm0.0 mm/hwechselhaft
08.02.2023 - 04.40Uhr-2.6 °C-5 °C85.0 %8.6 km/hNord-NW16.2 km/h1034.0 hPa0.0 mm0.0 mm/hwechselhaft
08.02.2023 - 04.45Uhr-2.7 °C-5 °C85.0 %9.6 km/hNord-NW16.2 km/h1034.0 hPa0.0 mm0.0 mm/hwechselhaft
08.02.2023 - 04.50Uhr-2.7 °C-5 °C84.1 %8.4 km/hNorden17.6 km/h1034.0 hPa0.0 mm0.0 mm/hwechselhaft
08.02.2023 - 04.55Uhr-2.8 °C-5 °C84.0 %8.3 km/hNord-NW16.2 km/h1034.0 hPa0.0 mm0.0 mm/hwechselhaft
08.02.2023 - 05.00Uhr-2.8 °C-5 °C84.0 %7.3 km/hNorden14.4 km/h1034.0 hPa0.0 mm0.0 mm/hwechselhaft
08.02.2023 - 05.05Uhr-2.8 °C-5 °C84.0 %8.0 km/hNorden13.0 km/h1034.0 hPa0.0 mm0.0 mm/hwechselhaft
08.02.2023 - 05.10Uhr-2.9 °C-5 °C84.0 %7.8 km/hNorden14.4 km/h1033.9 hPa0.0 mm0.0 mm/hsonnig
08.02.2023 - 05.15Uhr-2.9 °C-5 °C84.0 %10.8 km/hNorden19.4 km/h1033.9 hPa0.0 mm0.0 mm/hsonnig
08.02.2023 - 05.20Uhr-2.9 °C-5 °C84.0 %6.0 km/hNord-NO13.0 km/h1033.8 hPa0.0 mm0.0 mm/hsonnig
08.02.2023 - 05.25Uhr-2.9 °C-5 °C84.0 %6.4 km/hNorden14.4 km/h1033.8 hPa0.0 mm0.0 mm/hsonnig
08.02.2023 - 05.30Uhr-3.0 °C-5 °C84.0 %6.6 km/hNorden14.4 km/h1033.7 hPa0.0 mm0.0 mm/hsonnig
08.02.2023 - 05.35Uhr-3.1 °C-5 °C84.0 %7.1 km/hNord-NO14.4 km/h1033.6 hPa0.0 mm0.0 mm/hsonnig
08.02.2023 - 05.40Uhr-3.1 °C-5 °C84.0 %8.1 km/hNorden14.4 km/h1033.7 hPa0.0 mm0.0 mm/hsonnig
08.02.2023 - 05.45Uhr-3.2 °C-5 °C84.0 %6.1 km/hNorden13.0 km/h1033.6 hPa0.0 mm0.0 mm/hsonnig
08.02.2023 - 05.50Uhr-3.2 °C-6 °C84.0 %10.6 km/hNorden17.6 km/h1033.6 hPa0.0 mm0.0 mm/hsonnig
08.02.2023 - 05.55Uhr-3.3 °C-6 °C84.0 %8.5 km/hNorden14.4 km/h1033.6 hPa0.0 mm0.0 mm/hsonnig
08.02.2023 - 06.00Uhr-3.4 °C-6 °C83.1 %7.1 km/hNorden14.4 km/h1033.6 hPa0.0 mm0.0 mm/hsonnig
08.02.2023 - 06.05Uhr-3.4 °C-6 °C84.0 %6.1 km/hNorden14.4 km/h1033.6 hPa0.0 mm0.0 mm/hsonnig
08.02.2023 - 06.10Uhr-3.4 °C-6 °C84.0 %5.0 km/hNorden9.7 km/h1033.6 hPa0.0 mm0.0 mm/hwechselhaft
08.02.2023 - 06.15Uhr-3.5 °C-6 °C84.0 %7.6 km/hNorden13.0 km/h1033.5 hPa0.0 mm0.0 mm/hwechselhaft
08.02.2023 - 06.20Uhr-3.5 °C-6 °C84.0 %6.3 km/hNorden13.0 km/h1033.5 hPa0.0 mm0.0 mm/hwechselhaft
08.02.2023 - 06.25Uhr-3.5 °C-6 °C84.0 %8.5 km/hNorden16.2 km/h1033.5 hPa0.0 mm0.0 mm/hwechselhaft
08.02.2023 - 06.30Uhr-3.6 °C-6 °C84.0 %7.1 km/hNorden13.0 km/h1033.5 hPa0.0 mm0.0 mm/hwechselhaft
08.02.2023 - 06.35Uhr-3.6 °C-6 °C84.0 %7.7 km/hNorden14.4 km/h1033.5 hPa0.0 mm0.0 mm/hwechselhaft
08.02.2023 - 06.40Uhr-3.6 °C-6 °C84.0 %5.8 km/hNorden13.0 km/h1033.6 hPa0.0 mm0.0 mm/hwechselhaft
08.02.2023 - 06.45Uhr-3.6 °C-6 °C84.0 %5.7 km/hNord-NW14.4 km/h1033.6 hPa0.0 mm0.0 mm/hwechselhaft
08.02.2023 - 06.50Uhr-3.6 °C-6 °C84.0 %5.5 km/hNordwesten16.2 km/h1033.6 hPa0.0 mm0.0 mm/hwechselhaft
08.02.2023 - 06.55Uhr-3.6 °C-6 °C84.0 %4.4 km/hNord-NW9.7 km/h1033.8 hPa0.0 mm0.0 mm/hwechselhaft
08.02.2023 - 07.00Uhr-3.6 °C-6 °C84.0 %4.5 km/hNord-NO13.0 km/h1033.8 hPa0.0 mm0.0 mm/hwechselhaft
08.02.2023 - 07.05Uhr-3.6 °C-6 °C84.0 %3.4 km/hNorden6.5 km/h1033.8 hPa0.0 mm0.0 mm/hwechselhaft
08.02.2023 - 07.10Uhr-3.6 °C-6 °C84.0 %3.8 km/hNorden9.7 km/h1033.8 hPa0.0 mm0.0 mm/hwechselhaft
08.02.2023 - 07.15Uhr-3.5 °C-6 °C84.0 %2.9 km/hNord-NW6.5 km/h1034.0 hPa0.0 mm0.0 mm/hwechselhaft
08.02.2023 - 07.20Uhr-3.5 °C-6 °C84.0 %4.4 km/hNorden9.7 km/h1033.9 hPa0.0 mm0.0 mm/hwechselhaft
08.02.2023 - 07.25Uhr-3.5 °C-6 °C84.0 %3.7 km/hNord-NO7.9 km/h1033.8 hPa0.0 mm0.0 mm/hwechselhaft
08.02.2023 - 07.30Uhr-3.5 °C-6 °C84.0 %3.3 km/hNorden7.9 km/h1033.9 hPa0.0 mm0.0 mm/hwechselhaft
08.02.2023 - 07.35Uhr-3.5 °C-6 °C84.0 %5.8 km/hNorden9.7 km/h1034.0 hPa0.0 mm0.0 mm/hwechselhaft
08.02.2023 - 07.40Uhr-3.6 °C-6 °C84.0 %3.6 km/hNorden7.9 km/h1034.0 hPa0.0 mm0.0 mm/hwechselhaft
08.02.2023 - 07.45Uhr-3.6 °C-6 °C84.0 %3.4 km/hNord-NW6.5 km/h1034.1 hPa0.0 mm0.0 mm/hwechselhaft
08.02.2023 - 07.50Uhr-3.6 °C-6 °C84.7 %2.5 km/hNord-NW4.7 km/h1034.1 hPa0.0 mm0.0 mm/hwechselhaft
08.02.2023 - 07.55Uhr-3.6 °C-6 °C85.0 %6.3 km/hNord-NW13.0 km/h1034.0 hPa0.0 mm0.0 mm/hwechselhaft
08.02.2023 - 08.00Uhr-3.6 °C-6 °C84.9 %5.2 km/hNord-NW13.0 km/h1034.1 hPa0.0 mm0.0 mm/hwechselhaft
08.02.2023 - 08.05Uhr-3.6 °C-6 °C84.0 %5.5 km/hNord-NW13.0 km/h1034.0 hPa0.0 mm0.0 mm/hwechselhaft
08.02.2023 - 08.10Uhr-3.7 °C-6 °C84.0 %4.5 km/hNord-NW9.7 km/h1034.0 hPa0.0 mm0.0 mm/hwechselhaft
08.02.2023 - 08.15Uhr-3.7 °C-6 °C84.0 %5.4 km/hNord-NW14.4 km/h1034.0 hPa0.0 mm0.0 mm/hwechselhaft
08.02.2023 - 08.20Uhr-3.8 °C-6 °C83.8 %7.4 km/hNordwesten14.4 km/h1034.0 hPa0.0 mm0.0 mm/hwechselhaft
08.02.2023 - 08.25Uhr-3.8 °C-6 °C84.0 %5.7 km/hNord-NW9.7 km/h1034.0 hPa0.0 mm0.0 mm/hwechselhaft
08.02.2023 - 08.30Uhr-3.8 °C-6 °C83.3 %4.8 km/hNord-NW9.7 km/h1034.1 hPa0.0 mm0.0 mm/hwechselhaft
08.02.2023 - 08.35Uhr-3.8 °C-6 °C83.8 %3.8 km/hNord-NW13.0 km/h1034.0 hPa0.0 mm0.0 mm/hwechselhaft
08.02.2023 - 08.40Uhr-3.8 °C-6 °C83.0 %6.6 km/hNordwesten13.0 km/h1034.1 hPa0.0 mm0.0 mm/hwechselhaft
08.02.2023 - 08.45Uhr-3.8 °C-6 °C83.0 %5.7 km/hNord-NW14.4 km/h1034.2 hPa0.0 mm0.0 mm/hwechselhaft
08.02.2023 - 08.50Uhr-3.8 °C-6 °C83.0 %5.8 km/hNordwesten9.7 km/h1034.2 hPa0.0 mm0.0 mm/hwechselhaft
08.02.2023 - 08.55Uhr-3.8 °C-6 °C83.0 %5.7 km/hNord-NW16.2 km/h1034.2 hPa0.0 mm0.0 mm/hwechselhaft
08.02.2023 - 09.00Uhr-3.9 °C-6 °C83.0 %5.4 km/hNordwesten9.7 km/h1034.3 hPa0.0 mm0.0 mm/hwechselhaft
08.02.2023 - 09.05Uhr-3.8 °C-6 °C83.0 %4.8 km/hNordwesten14.4 km/h1034.4 hPa0.0 mm0.0 mm/hwechselhaft
08.02.2023 - 09.10Uhr-3.8 °C-6 °C83.0 %4.1 km/hNordwesten6.5 km/h1034.4 hPa0.0 mm0.0 mm/hwechselhaft
08.02.2023 - 09.15Uhr-3.8 °C-6 °C83.0 %3.4 km/hNordwesten6.5 km/h1034.4 hPa0.0 mm0.0 mm/hwechselhaft
08.02.2023 - 09.20Uhr-3.7 °C-6 °C83.0 %2.4 km/hNordwesten6.5 km/h1034.4 hPa0.0 mm0.0 mm/hwechselhaft
08.02.2023 - 09.25Uhr-3.6 °C-6 °C83.0 %3.4 km/hNordwesten7.9 km/h1034.5 hPa0.0 mm0.0 mm/hwechselhaft
08.02.2023 - 09.30Uhr-3.5 °C-6 °C83.0 %2.5 km/hNordwesten6.5 km/h1034.4 hPa0.0 mm0.0 mm/hwechselhaft
08.02.2023 - 09.35Uhr-3.4 °C-6 °C83.0 %3.8 km/hNord-NW6.5 km/h1034.4 hPa0.0 mm0.0 mm/hwechselhaft
08.02.2023 - 09.40Uhr-3.4 °C-6 °C82.8 %2.2 km/hNord-NW4.7 km/h1034.4 hPa0.0 mm0.0 mm/hwechselhaft
08.02.2023 - 09.45Uhr-3.3 °C-6 °C82.8 %3.0 km/hNordwesten4.7 km/h1034.4 hPa0.0 mm0.0 mm/hwechselhaft
08.02.2023 - 09.50Uhr-3.3 °C-6 °C82.3 %1.6 km/hNordwesten4.7 km/h1034.4 hPa0.0 mm0.0 mm/hwechselhaft
08.02.2023 - 09.55Uhr-3.3 °C-6 °C82.2 %1.7 km/hNordwesten4.7 km/h1034.5 hPa0.0 mm0.0 mm/hwechselhaft
08.02.2023 - 10.00Uhr-3.3 °C-6 °C82.0 %1.0 km/hNordwesten3.2 km/h1034.4 hPa0.0 mm0.0 mm/hwechselhaft
08.02.2023 - 10.05Uhr-3.3 °C-6 °C82.0 %1.1 km/hNordwesten4.7 km/h1034.4 hPa0.0 mm0.0 mm/hwechselhaft
08.02.2023 - 10.10Uhr-3.3 °C-6 °C82.0 %0.4 km/hNordwesten3.2 km/h1034.5 hPa0.0 mm0.0 mm/hwechselhaft
08.02.2023 - 10.15Uhr-3.2 °C-6 °C82.0 %1.6 km/hNordwesten3.2 km/h1034.5 hPa0.0 mm0.0 mm/hwechselhaft
08.02.2023 - 10.20Uhr-3.1 °C-6 °C82.0 %1.2 km/hWest-NW3.2 km/h1034.5 hPa0.0 mm0.0 mm/hwechselhaft
08.02.2023 - 10.25Uhr-3.0 °C-6 °C82.0 %2.0 km/hWest-NW9.7 km/h1034.4 hPa0.0 mm0.0 mm/hwechselhaft
08.02.2023 - 10.30Uhr-2.9 °C-6 °C82.0 %3.8 km/hWesten9.7 km/h1034.5 hPa0.0 mm0.0 mm/hwechselhaft
08.02.2023 - 10.35Uhr-2.8 °C-6 °C81.5 %2.1 km/hWesten4.7 km/h1034.4 hPa0.0 mm0.0 mm/hwechselhaft
08.02.2023 - 10.40Uhr-2.7 °C-5 °C81.6 %2.0 km/hWesten6.5 km/h1034.5 hPa0.0 mm0.0 mm/hwechselhaft
08.02.2023 - 10.45Uhr-2.6 °C-5 °C81.0 %1.9 km/hWest-NW4.7 km/h1034.5 hPa0.0 mm0.0 mm/hwechselhaft
08.02.2023 - 10.50Uhr-2.5 °C-5 °C81.0 %2.0 km/hWest-NW4.7 km/h1034.6 hPa0.0 mm0.0 mm/hwechselhaft
08.02.2023 - 10.55Uhr-2.3 °C-5 °C81.2 %4.0 km/hNordwesten7.9 km/h1034.5 hPa0.0 mm0.0 mm/hwechselhaft
08.02.2023 - 11.00Uhr-2.1 °C-5 °C81.4 %2.7 km/hWest-NW6.5 km/h1034.6 hPa0.0 mm0.0 mm/hwechselhaft
08.02.2023 - 11.05Uhr-2.0 °C-5 °C80.6 %4.2 km/hWest-NW9.7 km/h1034.6 hPa0.0 mm0.0 mm/hwechselhaft
08.02.2023 - 11.10Uhr-2.1 °C-5 °C79.4 %2.4 km/hWest-NW9.7 km/h1034.6 hPa0.0 mm0.0 mm/hwechselhaft
08.02.2023 - 11.15Uhr-2.1 °C-5 °C79.8 %0.7 km/hNordwesten4.7 km/h1034.5 hPa0.0 mm0.0 mm/hwechselhaft
08.02.2023 - 11.20Uhr-2.1 °C-5 °C79.7 %1.8 km/hNordwesten4.7 km/h1034.6 hPa0.0 mm0.0 mm/hwechselhaft
08.02.2023 - 11.25Uhr-2.1 °C-5 °C79.6 %0.7 km/hNordwesten3.2 km/h1034.6 hPa0.0 mm0.0 mm/hwechselhaft
08.02.2023 - 11.30Uhr-2.0 °C-5 °C80.2 %2.8 km/hWest-NW6.5 km/h1034.5 hPa0.0 mm0.0 mm/hwechselhaft
08.02.2023 - 11.35Uhr-1.9 °C-5 °C79.4 %1.5 km/hWest-NW3.2 km/h1034.5 hPa0.0 mm0.0 mm/hwechselhaft
08.02.2023 - 11.40Uhr-1.8 °C-5 °C79.3 %0.6 km/hWest-NW4.7 km/h1034.4 hPa0.0 mm0.0 mm/hwechselhaft
08.02.2023 - 11.45Uhr-1.6 °C-5 °C79.3 %2.7 km/hWesten7.9 km/h1034.4 hPa0.0 mm0.0 mm/hwechselhaft
08.02.2023 - 11.50Uhr-1.4 °C-5 °C79.6 %5.2 km/hWest-SW11.2 km/h1034.3 hPa0.0 mm0.0 mm/hwechselhaft
08.02.2023 - 11.55Uhr-1.2 °C-4 °C79.4 %4.0 km/hWest-SW7.9 km/h1034.2 hPa0.0 mm0.0 mm/hwechselhaft
08.02.2023 - 12.00Uhr-1.2 °C-4 °C78.3 %2.7 km/hWest-SW6.5 km/h1034.2 hPa0.0 mm0.0 mm/hwechselhaft
08.02.2023 - 12.05Uhr-1.1 °C-4 °C78.7 %4.3 km/hWest-SW6.5 km/h1034.2 hPa0.0 mm0.0 mm/hwechselhaft
08.02.2023 - 12.10Uhr-1.0 °C-4 °C77.9 %3.9 km/hWest-SW7.9 km/h1034.2 hPa0.0 mm0.0 mm/hwechselhaft
08.02.2023 - 12.15Uhr-1.1 °C-5 °C77.2 %1.3 km/hWest-SW4.7 km/h1034.1 hPa0.0 mm0.0 mm/hwechselhaft
08.02.2023 - 12.20Uhr-1.0 °C-4 °C77.2 %0.0 km/hWest-SW1.4 km/h1034.1 hPa0.0 mm0.0 mm/hwechselhaft
08.02.2023 - 12.25Uhr-0.8 °C-4 °C78.0 %1.2 km/hWest-SW6.5 km/h1034.1 hPa0.0 mm0.0 mm/hwechselhaft
08.02.2023 - 12.30Uhr-0.6 °C-4 °C76.6 %3.2 km/hWesten7.9 km/h1034.0 hPa0.0 mm0.0 mm/hwechselhaft
08.02.2023 - 12.35Uhr-0.7 °C-4 °C76.3 %3.4 km/hSüdwesten6.5 km/h1034.0 hPa0.0 mm0.0 mm/hwechselhaft
08.02.2023 - 12.40Uhr-0.8 °C-4 °C76.2 %1.3 km/hSüdwesten4.7 km/h1034.0 hPa0.0 mm0.0 mm/hwechselhaft
08.02.2023 - 12.45Uhr-0.5 °C-4 °C76.8 %5.4 km/hSüdwesten7.9 km/h1034.0 hPa0.0 mm0.0 mm/hwechselhaft
08.02.2023 - 12.50Uhr-0.6 °C-4 °C76.4 %4.7 km/hWest-SW7.9 km/h1034.0 hPa0.0 mm0.0 mm/hwechselhaft
08.02.2023 - 12.55Uhr-0.4 °C-4 °C76.1 %3.9 km/hWest-SW6.5 km/h1033.9 hPa0.0 mm0.0 mm/hwechselhaft
08.02.2023 - 13.00Uhr-0.4 °C-4 °C76.0 %3.1 km/hWest-SW7.9 km/h1033.9 hPa0.0 mm0.0 mm/hwechselhaft
08.02.2023 - 13.05Uhr-0.3 °C-4 °C75.7 %2.1 km/hWest-SW6.5 km/h1033.9 hPa0.0 mm0.0 mm/hwechselhaft
08.02.2023 - 13.10Uhr-0.1 °C-4 °C75.3 %5.3 km/hSüden9.7 km/h1033.8 hPa0.0 mm0.0 mm/hwechselhaft
08.02.2023 - 13.15Uhr-0.0 °C-4 °C75.6 %2.5 km/hSüden7.9 km/h1033.8 hPa0.0 mm0.0 mm/hwechselhaft
08.02.2023 - 13.20Uhr0.2 °C-4 °C75.5 %3.7 km/hSüden7.9 km/h1033.7 hPa0.0 mm0.0 mm/hwechselhaft
08.02.2023 - 13.25Uhr0.4 °C-4 °C74.7 %4.6 km/hSüd-SO9.7 km/h1033.6 hPa0.0 mm0.0 mm/hwechselhaft
08.02.2023 - 13.30Uhr0.5 °C-4 °C73.8 %4.4 km/hSüd-SW7.9 km/h1033.5 hPa0.0 mm0.0 mm/hwechselhaft
08.02.2023 - 13.35Uhr0.2 °C-4 °C75.2 %5.4 km/hSüd-SW9.7 km/h1033.4 hPa0.0 mm0.0 mm/hwechselhaft
08.02.2023 - 13.40Uhr0.3 °C-4 °C75.5 %6.2 km/hSüdwesten9.7 km/h1033.2 hPa0.0 mm0.0 mm/hwechselhaft
08.02.2023 - 13.45Uhr0.4 °C-4 °C74.8 %5.1 km/hSüden7.9 km/h1033.2 hPa0.0 mm0.0 mm/hwechselhaft
08.02.2023 - 13.50Uhr0.5 °C-4 °C74.0 %2.5 km/hSüden6.5 km/h1033.1 hPa0.0 mm0.0 mm/hwechselhaft
08.02.2023 - 13.55Uhr0.6 °C-4 °C73.6 %5.9 km/hSüd-SW11.2 km/h1033.0 hPa0.0 mm0.0 mm/hwechselhaft
08.02.2023 - 14.00Uhr0.7 °C-4 °C73.0 %3.1 km/hSüdwesten7.9 km/h1032.9 hPa0.0 mm0.0 mm/hwechselhaft
08.02.2023 - 14.05Uhr0.7 °C-4 °C72.0 %4.2 km/hWest-NW11.2 km/h1032.8 hPa0.0 mm0.0 mm/hwechselhaft
08.02.2023 - 14.10Uhr0.8 °C-4 °C72.7 %4.1 km/hSüd-SW9.7 km/h1032.6 hPa0.0 mm0.0 mm/hwechselhaft
08.02.2023 - 14.15Uhr0.9 °C-4 °C72.5 %3.5 km/hSüdwesten7.9 km/h1032.6 hPa0.0 mm0.0 mm/hwechselhaft
08.02.2023 - 14.20Uhr1.1 °C-3 °C72.3 %2.6 km/hSüdwesten6.5 km/h1032.6 hPa0.0 mm0.0 mm/hwechselhaft
08.02.2023 - 14.25Uhr1.2 °C-3 °C71.8 %4.1 km/hSüdwesten7.9 km/h1032.5 hPa0.0 mm0.0 mm/hwechselhaft
08.02.2023 - 14.30Uhr1.2 °C-3 °C71.8 %4.8 km/hWest-SW7.9 km/h1032.6 hPa0.0 mm0.0 mm/hwechselhaft
08.02.2023 - 14.35Uhr1.3 °C-3 °C71.3 %5.0 km/hWest-SW9.7 km/h1032.5 hPa0.0 mm0.0 mm/hwechselhaft
08.02.2023 - 14.40Uhr1.2 °C-3 °C71.4 %5.1 km/hSüd-SW7.9 km/h1032.5 hPa0.0 mm0.0 mm/hwechselhaft
08.02.2023 - 14.45Uhr1.3 °C-3 °C70.6 %2.8 km/hSüdwesten6.5 km/h1032.5 hPa0.0 mm0.0 mm/hwechselhaft
08.02.2023 - 14.50Uhr1.5 °C-3 °C70.7 %4.4 km/hWest-SW9.7 km/h1032.5 hPa0.0 mm0.0 mm/hwechselhaft
08.02.2023 - 14.55Uhr1.5 °C-3 °C70.2 %4.9 km/hWest-SW7.9 km/h1032.3 hPa0.0 mm0.0 mm/hwechselhaft
08.02.2023 - 15.00Uhr1.5 °C-3 °C70.6 %6.8 km/hSüden11.2 km/h1032.3 hPa0.0 mm0.0 mm/hwechselhaft
08.02.2023 - 15.05Uhr1.4 °C-3 °C70.8 %5.5 km/hSüden11.2 km/h1032.4 hPa0.0 mm0.0 mm/hwechselhaft
08.02.2023 - 15.10Uhr1.4 °C-3 °C71.3 %6.9 km/hSüd-SW11.2 km/h1032.4 hPa0.0 mm0.0 mm/hwechselhaft
08.02.2023 - 15.15Uhr1.4 °C-3 °C71.5 %5.8 km/hSüd-SW9.7 km/h1032.4 hPa0.0 mm0.0 mm/hwechselhaft
08.02.2023 - 15.20Uhr1.5 °C-3 °C71.2 %7.3 km/hSüden11.2 km/h1032.4 hPa0.0 mm0.0 mm/hwechselhaft
08.02.2023 - 15.25Uhr1.5 °C-3 °C71.0 %7.8 km/hSüd-SW11.2 km/h1032.5 hPa0.0 mm0.0 mm/hwechselhaft
08.02.2023 - 15.30Uhr1.4 °C-3 °C71.2 %8.6 km/hSüd-SW14.4 km/h1032.5 hPa0.0 mm0.0 mm/hwechselhaft